createdAt,value
2019-03-25T00:01:21.225Z,43.84
2019-03-25T00:03:50.791Z,43.80
2019-03-25T00:06:20.341Z,43.80
2019-03-25T00:09:03.260Z,43.81
2019-03-25T00:11:21.233Z,43.96
2019-03-25T00:13:50.825Z,44.04
2019-03-25T00:16:20.376Z,44.15
2019-03-25T00:18:50.008Z,44.29
2019-03-25T00:21:19.709Z,44.44
2019-03-25T00:23:49.307Z,44.64
2019-03-25T00:26:18.970Z,44.74
2019-03-25T00:28:48.566Z,44.78
2019-03-25T00:31:18.129Z,44.97
2019-03-25T00:33:47.638Z,45.07
2019-03-25T00:36:17.250Z,45.19
2019-03-25T00:38:46.828Z,45.35
2019-03-25T00:41:16.464Z,45.45
2019-03-25T00:43:46.007Z,45.71
2019-03-25T00:46:15.647Z,45.73
2019-03-25T00:48:45.242Z,45.77
2019-03-25T00:51:14.852Z,45.84
2019-03-25T00:53:44.454Z,46.00
2019-03-25T00:56:14.035Z,46.04
2019-03-25T00:58:43.676Z,46.16
2019-03-25T01:01:13.351Z,46.20
2019-03-25T01:03:42.937Z,46.18
2019-03-25T01:06:12.550Z,46.09
2019-03-25T01:08:42.077Z,45.95
2019-03-25T01:11:11.678Z,45.90
2019-03-25T01:13:41.302Z,45.82
2019-03-25T01:16:10.827Z,45.82
2019-03-25T01:18:40.442Z,45.70
2019-03-25T01:21:09.970Z,45.62
2019-03-25T01:23:39.592Z,45.55
2019-03-25T01:26:09.129Z,45.39
2019-03-25T01:28:38.741Z,45.35
2019-03-25T01:31:08.271Z,45.27
2019-03-25T01:33:37.804Z,45.41
2019-03-25T01:36:07.307Z,45.40
2019-03-25T01:38:36.895Z,45.46
2019-03-25T01:41:06.442Z,45.53
2019-03-25T01:43:36.032Z,45.59
2019-03-25T01:46:05.582Z,45.63
2019-03-25T01:48:35.081Z,45.70
2019-03-25T01:51:04.665Z,45.86
2019-03-25T01:53:34.273Z,45.82
2019-03-25T01:56:03.909Z,45.93
2019-03-25T01:58:33.500Z,45.80
2019-03-25T02:01:03.022Z,46.00
2019-03-25T02:03:32.629Z,45.78
2019-03-25T02:06:02.165Z,45.66
2019-03-25T02:08:31.677Z,45.51
2019-03-25T02:11:01.276Z,45.51
2019-03-25T02:13:30.932Z,45.30
2019-03-25T02:16:00.437Z,45.21
2019-03-25T02:18:29.975Z,45.15
2019-03-25T02:20:59.514Z,44.99
2019-03-25T02:23:29.205Z,44.86
2019-03-25T02:25:58.789Z,44.95
2019-03-25T02:28:31.432Z,44.95
2019-03-25T02:31:01.034Z,44.92
2019-03-25T02:33:30.660Z,44.94
2019-03-25T02:36:00.128Z,44.88
2019-03-25T02:38:32.235Z,44.95
2019-03-25T02:41:01.803Z,44.89
2019-03-25T02:43:31.351Z,45.02
2019-03-25T02:46:01.140Z,45.21
2019-03-25T02:48:30.746Z,45.36
2019-03-25T02:51:00.332Z,45.45
2019-03-25T02:53:31.682Z,45.53
2019-03-25T02:56:01.327Z,45.64
2019-03-25T02:58:30.926Z,45.64
2019-03-25T03:01:00.432Z,45.60
2019-03-25T03:03:30.067Z,45.72
2019-03-25T03:05:59.639Z,45.84
2019-03-25T03:08:29.210Z,45.88
2019-03-25T03:10:58.868Z,45.81
2019-03-25T03:13:28.434Z,45.87
2019-03-25T03:15:58.066Z,45.77
2019-03-25T03:18:27.661Z,45.91
2019-03-25T03:20:57.241Z,45.96
2019-03-25T03:23:26.859Z,45.87
2019-03-25T03:25:58.129Z,46.03
2019-03-25T03:28:27.767Z,45.94
2019-03-25T03:30:57.431Z,45.94
2019-03-25T03:33:26.927Z,45.98
2019-03-25T03:35:56.613Z,46.04
2019-03-25T03:38:26.184Z,46.07
2019-03-25T03:40:55.797Z,46.24
2019-03-25T03:43:25.361Z,46.30
2019-03-25T03:45:54.872Z,46.31
2019-03-25T03:48:24.371Z,46.31
2019-03-25T03:50:54.068Z,46.33
2019-03-25T03:53:23.606Z,46.32
2019-03-25T03:55:53.211Z,46.34
2019-03-25T03:58:23.406Z,46.26
2019-03-25T04:00:53.029Z,46.36
2019-03-25T04:03:22.630Z,46.42
2019-03-25T04:05:52.261Z,46.42
2019-03-25T04:08:21.837Z,46.44
2019-03-25T04:10:51.454Z,46.57
2019-03-25T04:13:21.034Z,46.71
2019-03-25T04:15:50.600Z,46.81
2019-03-25T04:18:20.101Z,46.92
2019-03-25T04:20:49.696Z,47.09
2019-03-25T04:23:19.281Z,47.38
2019-03-25T04:25:48.856Z,47.68
2019-03-25T04:28:18.512Z,47.79
2019-03-25T04:30:48.144Z,47.89
2019-03-25T04:33:17.648Z,48.11
2019-03-25T04:35:47.353Z,48.30
2019-03-25T04:38:16.995Z,48.34
2019-03-25T04:40:46.585Z,48.34
2019-03-25T04:43:16.205Z,48.32
2019-03-25T04:45:45.782Z,48.36
2019-03-25T04:48:15.290Z,48.34
2019-03-25T04:50:44.848Z,48.50
2019-03-25T04:53:14.441Z,48.42
2019-03-25T04:55:44.038Z,48.67
2019-03-25T04:58:13.714Z,48.85
2019-03-25T05:00:43.245Z,49.04
2019-03-25T05:03:12.789Z,48.97
2019-03-25T05:05:42.400Z,49.03
2019-03-25T05:08:11.973Z,48.98
2019-03-25T05:10:41.434Z,49.00
2019-03-25T05:13:11.003Z,48.98
2019-03-25T05:15:40.547Z,49.03
2019-03-25T05:18:10.128Z,49.04
2019-03-25T05:20:39.597Z,48.94
2019-03-25T05:23:09.200Z,49.14
2019-03-25T05:25:38.658Z,49.15
2019-03-25T05:28:08.069Z,49.16
2019-03-25T05:30:37.633Z,49.22
2019-03-25T05:33:07.235Z,49.05
2019-03-25T05:35:36.801Z,49.01
2019-03-25T05:38:06.357Z,49.13
2019-03-25T05:40:35.955Z,49.23
2019-03-25T05:43:05.462Z,49.12
2019-03-25T05:45:35.017Z,49.12
2019-03-25T05:48:04.607Z,49.09
2019-03-25T05:50:34.215Z,49.09
2019-03-25T05:53:03.942Z,49.33
2019-03-25T05:55:33.529Z,49.47
2019-03-25T05:58:03.141Z,49.46
2019-03-25T06:00:35.054Z,49.60
2019-03-25T06:03:04.583Z,49.62
2019-03-25T06:05:34.155Z,49.63
2019-03-25T06:08:03.762Z,49.80
2019-03-25T06:10:33.291Z,49.79
2019-03-25T06:13:03.306Z,49.65
2019-03-25T06:15:32.976Z,49.44
2019-03-25T06:18:02.569Z,49.33
2019-03-25T06:20:33.318Z,49.19
2019-03-25T06:23:02.856Z,49.14
2019-03-25T06:25:32.485Z,48.76
2019-03-25T06:28:02.043Z,48.65
2019-03-25T06:30:31.474Z,48.53
2019-03-25T06:33:11.967Z,48.51
2019-03-25T06:35:32.434Z,48.45
2019-03-25T06:38:02.036Z,48.42
2019-03-25T06:40:31.687Z,48.42
2019-03-25T06:43:01.265Z,48.35
2019-03-25T06:45:30.857Z,48.32
2019-03-25T06:48:00.565Z,48.26
2019-03-25T06:50:31.332Z,48.28
2019-03-25T06:53:08.069Z,48.22
2019-03-25T06:55:37.907Z,48.22
2019-03-25T06:58:18.266Z,48.29
2019-03-25T07:01:55.674Z,48.19
2019-03-25T07:04:28.937Z,47.93
2019-03-25T07:11:30.391Z,47.39
2019-03-25T07:14:30.710Z,47.25
2019-03-25T07:17:00.757Z,47.36
2019-03-25T07:20:07.717Z,47.47
2019-03-25T07:22:40.759Z,47.56
2019-03-25T07:25:17.724Z,47.60
2019-03-25T07:28:11.522Z,47.63
2019-03-25T07:34:14.227Z,47.54
2019-03-25T07:38:18.749Z,47.55
2019-03-25T07:51:44.560Z,47.05
2019-03-25T07:54:14.234Z,46.94
2019-03-25T07:56:44.101Z,46.75
2019-03-25T07:59:13.789Z,46.49
2019-03-25T08:01:43.507Z,46.19
2019-03-25T08:04:13.160Z,46.04
2019-03-25T08:06:42.866Z,45.66
2019-03-25T08:09:12.476Z,45.58
2019-03-25T08:11:42.380Z,45.45
2019-03-25T08:14:11.968Z,45.14
2019-03-25T08:16:41.623Z,44.92
2019-03-25T08:19:11.501Z,44.70
2019-03-25T08:21:41.379Z,44.45
2019-03-25T08:24:17.436Z,44.04
2019-03-25T08:26:47.282Z,43.95
2019-03-25T08:29:18.943Z,43.78
2019-03-25T08:31:48.967Z,43.58
2019-03-25T08:34:22.583Z,43.01
2019-03-25T08:36:52.407Z,42.67
2019-03-25T08:39:22.232Z,42.47
2019-03-25T08:41:52.091Z,42.51
2019-03-25T08:44:26.139Z,42.42
2019-03-25T08:47:15.562Z,42.06
2019-03-25T08:49:49.456Z,41.44
2019-03-25T08:54:55.107Z,41.13
2019-03-25T08:57:25.096Z,41.33
2019-03-25T09:00:03.936Z,41.36
2019-03-25T09:02:55.214Z,41.37
2019-03-25T09:05:24.974Z,41.44
2019-03-25T09:18:21.847Z,41.07
2019-03-25T09:19:13.850Z,41.08
2019-03-25T09:25:40.632Z,42.75
2019-03-25T09:28:10.309Z,43.91
2019-03-25T09:34:37.432Z,44.69
2019-03-25T09:37:52.870Z,44.86
2019-03-25T09:41:20.482Z,45.31
2019-03-25T09:47:04.480Z,43.83
2019-03-25T09:49:34.237Z,42.62
2019-03-25T10:12:32.476Z,24.61
2019-03-25T10:15:47.814Z,23.96
2019-03-25T12:44:06.245Z,31.82
2019-03-25T12:46:37.383Z,31.97
2019-03-25T12:49:07.519Z,31.41
2019-03-25T12:51:37.515Z,31.84
2019-03-25T12:54:10.958Z,32.13
2019-03-25T12:56:40.518Z,32.08
2019-03-25T12:59:10.339Z,32.19
2019-03-25T13:01:40.025Z,32.30
2019-03-25T13:04:09.620Z,32.38
2019-03-25T13:06:39.206Z,32.37
2019-03-25T13:09:09.063Z,31.88
2019-03-25T13:11:38.689Z,32.05
2019-03-25T13:14:08.579Z,32.24
2019-03-25T13:16:38.244Z,32.20
2019-03-25T13:19:08.166Z,31.93
2019-03-25T13:21:37.838Z,31.63
2019-03-25T13:24:07.564Z,31.65
2019-03-25T13:26:37.013Z,31.70
2019-03-25T13:29:06.854Z,32.72
2019-03-25T13:31:37.212Z,35.85
2019-03-25T13:34:06.884Z,37.83
2019-03-25T13:36:36.429Z,38.76
2019-03-25T13:39:06.938Z,39.47
2019-03-25T13:41:36.543Z,39.91
2019-03-25T13:44:06.289Z,40.04
2019-03-25T13:46:36.085Z,40.00
2019-03-25T13:49:05.719Z,39.41
2019-03-25T13:51:35.355Z,39.20
2019-03-25T13:54:06.935Z,39.32
2019-03-25T13:56:36.364Z,39.25
2019-03-25T13:59:05.921Z,40.16
2019-03-25T14:01:35.551Z,41.05
2019-03-25T14:04:05.092Z,41.96
2019-03-25T14:06:34.744Z,42.19
2019-03-25T14:09:05.408Z,42.01
2019-03-25T14:11:35.130Z,42.24
2019-03-25T14:14:04.721Z,42.37
2019-03-25T14:16:34.244Z,42.16
2019-03-25T14:19:03.877Z,42.16
2019-03-25T14:21:33.428Z,42.38
2019-03-25T14:24:03.167Z,42.41
2019-03-25T14:26:32.913Z,42.55
2019-03-25T14:29:02.433Z,43.04
2019-03-25T14:31:32.067Z,43.62
2019-03-25T14:34:01.685Z,43.98
2019-03-25T14:36:31.465Z,44.64
2019-03-25T14:39:01.110Z,44.84
2019-03-25T14:41:31.847Z,45.71
2019-03-25T14:44:01.510Z,46.33
2019-03-25T14:46:31.499Z,46.63
2019-03-25T14:49:01.164Z,46.50
2019-03-25T14:51:30.782Z,46.50
2019-03-25T14:54:00.403Z,46.42
2019-03-25T14:56:30.034Z,46.36
2019-03-25T14:58:59.675Z,46.46
2019-03-25T15:01:29.231Z,46.52
2019-03-25T15:03:58.907Z,46.94
2019-03-25T15:06:28.473Z,47.02
2019-03-25T15:08:58.205Z,47.07
2019-03-25T15:11:27.793Z,47.51
2019-03-25T15:13:57.425Z,48.07
2019-03-25T15:16:27.103Z,48.07
2019-03-25T15:18:56.703Z,48.13
2019-03-25T15:21:26.353Z,48.15
2019-03-25T15:23:55.960Z,48.40
2019-03-25T15:26:25.546Z,48.34
2019-03-25T15:28:55.121Z,48.01
2019-03-25T15:31:24.755Z,47.96
2019-03-25T15:33:54.777Z,48.17
2019-03-25T15:36:24.371Z,48.16
2019-03-25T15:38:53.970Z,48.16
2019-03-25T15:41:23.629Z,48.39
2019-03-25T15:43:53.212Z,48.06
2019-03-25T15:46:22.908Z,47.50
2019-03-25T15:48:52.601Z,46.48
2019-03-25T15:51:22.276Z,46.35
2019-03-25T15:53:51.956Z,45.97
2019-03-25T15:56:21.604Z,45.61
2019-03-25T15:58:51.185Z,45.01
2019-03-25T16:01:20.833Z,44.70
2019-03-25T16:03:50.479Z,44.24
2019-03-25T16:06:22.327Z,44.22
2019-03-25T16:08:51.424Z,44.82
2019-03-25T16:11:21.243Z,44.57
2019-03-25T16:13:50.918Z,44.31
2019-03-25T16:16:20.670Z,44.55
2019-03-25T16:18:50.421Z,44.46
2019-03-25T16:21:19.922Z,44.26
2019-03-25T16:23:51.913Z,43.90
2019-03-25T16:26:21.561Z,43.87
2019-03-25T16:28:51.260Z,43.62
2019-03-25T16:31:20.853Z,43.76
2019-03-25T16:33:50.630Z,43.71
2019-03-25T16:36:20.247Z,44.07
2019-03-25T16:38:50.022Z,43.59
2019-03-25T16:41:20.104Z,43.79
2019-03-25T16:43:49.915Z,42.97
2019-03-25T16:46:19.693Z,43.52
2019-03-25T16:48:57.322Z,43.19
2019-03-25T16:51:27.146Z,43.44
2019-03-25T16:54:00.694Z,43.05
2019-03-25T16:56:32.603Z,43.04
2019-03-25T16:59:02.214Z,43.21
2019-03-25T17:01:34.917Z,43.37
2019-03-25T17:04:04.414Z,43.30
2019-03-25T17:06:34.169Z,43.57
2019-03-25T17:09:04.381Z,43.44
2019-03-25T17:11:33.976Z,43.27
2019-03-25T17:14:03.623Z,43.45
2019-03-25T17:16:33.265Z,43.51
2019-03-25T17:19:02.928Z,43.52
2019-03-25T17:21:32.505Z,43.67
2019-03-25T17:24:02.165Z,43.76
2019-03-25T17:26:41.963Z,43.31
2019-03-25T17:29:03.243Z,43.35
2019-03-25T17:31:33.139Z,43.42
2019-03-25T17:34:02.726Z,43.30
2019-03-25T17:36:32.501Z,43.16
2019-03-25T17:39:02.270Z,42.97
2019-03-25T17:41:33.429Z,43.24
2019-03-25T17:44:03.774Z,43.35
2019-03-25T17:46:33.768Z,43.22
2019-03-25T17:49:03.384Z,43.17
2019-03-25T17:51:33.081Z,43.33
2019-03-25T17:54:02.752Z,43.36
2019-03-25T17:56:32.507Z,43.73
2019-03-25T17:59:02.066Z,43.77
2019-03-25T18:01:34.030Z,43.81
2019-03-25T18:04:03.729Z,44.05
2019-03-25T18:06:33.739Z,44.36
2019-03-25T18:09:04.491Z,44.89
2019-03-25T18:11:37.047Z,45.34
2019-03-25T18:14:06.861Z,46.11
2019-03-25T18:16:36.546Z,46.91
2019-03-25T18:19:06.572Z,47.23
2019-03-25T18:21:36.240Z,47.39
2019-03-25T18:24:06.085Z,47.99
2019-03-25T18:26:35.935Z,48.27
2019-03-25T18:29:08.894Z,48.43
2019-03-25T18:31:43.209Z,48.52
2019-03-25T18:34:10.328Z,49.01
2019-03-25T18:36:40.449Z,49.21
2019-03-25T18:39:10.175Z,49.44
2019-03-25T18:41:42.598Z,49.37
2019-03-25T18:44:12.433Z,49.35
2019-03-25T18:46:42.318Z,49.52
2019-03-25T18:49:12.267Z,49.77
2019-03-25T18:51:42.075Z,49.90
2019-03-25T18:54:11.952Z,49.93
2019-03-25T18:56:43.257Z,49.95
2019-03-25T18:59:13.478Z,49.96
2019-03-25T19:01:54.148Z,50.25
2019-03-25T19:04:18.142Z,49.88
2019-03-25T19:06:51.392Z,49.97
2019-03-25T19:09:21.596Z,50.00
2019-03-25T19:11:51.408Z,50.03
2019-03-25T19:14:21.284Z,49.96
2019-03-25T19:16:51.181Z,49.95
2019-03-25T19:19:20.818Z,49.85
2019-03-25T19:21:50.518Z,49.83
2019-03-25T19:24:20.103Z,49.86
2019-03-25T19:26:50.099Z,49.77
2019-03-25T19:29:19.792Z,49.63
2019-03-25T19:31:49.468Z,49.63
2019-03-25T19:34:19.032Z,49.75
2019-03-25T19:36:48.536Z,49.75
2019-03-25T19:39:18.254Z,49.63
2019-03-25T19:41:47.991Z,49.62
2019-03-25T19:44:17.537Z,49.64
2019-03-25T19:46:47.116Z,49.72
2019-03-25T19:49:16.708Z,50.12
2019-03-25T19:51:46.317Z,49.84
2019-03-25T19:54:16.112Z,49.92
2019-03-25T19:56:45.744Z,49.91
2019-03-25T19:59:15.417Z,49.92
2019-03-25T20:01:45.199Z,49.78
2019-03-25T20:04:14.840Z,49.74
2019-03-25T20:06:44.706Z,49.66
2019-03-25T20:09:14.265Z,49.58
2019-03-25T20:11:44.137Z,49.47
2019-03-25T20:14:13.744Z,49.44
2019-03-25T20:16:43.376Z,49.35
2019-03-25T20:19:12.960Z,49.25
2019-03-25T20:21:42.516Z,48.98
2019-03-25T20:24:12.138Z,48.80
2019-03-25T20:26:41.746Z,48.85
2019-03-25T20:29:11.357Z,48.65
2019-03-25T20:31:40.900Z,48.57
2019-03-25T20:34:11.569Z,48.48
2019-03-25T20:36:41.340Z,48.51
2019-03-25T20:39:10.938Z,48.00
2019-03-25T20:41:40.587Z,48.06
2019-03-25T20:44:10.131Z,48.00
2019-03-25T20:46:39.785Z,47.85
2019-03-25T20:49:09.391Z,47.65
2019-03-25T20:51:38.969Z,47.81
2019-03-25T20:54:08.429Z,47.85
2019-03-25T20:56:37.899Z,47.76
2019-03-25T20:59:07.402Z,47.57
2019-03-25T21:01:37.206Z,47.43
2019-03-25T21:04:06.814Z,47.30
2019-03-25T21:06:36.360Z,47.24
2019-03-25T21:09:06.605Z,47.42
2019-03-25T21:11:36.279Z,47.39
2019-03-25T21:14:06.063Z,47.36
2019-03-25T21:16:35.640Z,47.41
2019-03-25T21:19:05.672Z,47.40
2019-03-25T21:21:35.429Z,47.32
2019-03-25T21:24:05.033Z,47.27
2019-03-25T21:26:34.873Z,47.34
2019-03-25T21:29:04.380Z,47.30
2019-03-25T21:31:33.968Z,47.34
2019-03-25T21:34:03.610Z,47.45
2019-03-25T21:36:33.323Z,47.43
2019-03-25T21:39:03.094Z,47.46
2019-03-25T21:41:32.659Z,47.45
2019-03-25T21:44:02.345Z,47.54
2019-03-25T21:46:31.957Z,47.65
2019-03-25T21:49:01.438Z,47.46
2019-03-25T21:51:31.129Z,47.48
2019-03-25T21:54:00.672Z,47.37
2019-03-25T21:56:30.315Z,47.42
2019-03-25T21:59:00.560Z,47.26
2019-03-25T22:01:30.194Z,47.10
2019-03-25T22:03:59.782Z,47.14
2019-03-25T22:06:29.416Z,47.15
2019-03-25T22:08:59.191Z,47.20
2019-03-25T22:11:28.741Z,47.14
2019-03-25T22:13:58.368Z,47.07
2019-03-25T22:16:27.850Z,46.96
2019-03-25T22:18:57.569Z,46.95
2019-03-25T22:21:28.843Z,47.14
2019-03-25T22:23:58.559Z,47.13
2019-03-25T22:26:28.010Z,46.99
2019-03-25T22:28:57.675Z,46.99
2019-03-25T22:31:27.143Z,47.09
2019-03-25T22:33:56.762Z,47.14
2019-03-25T22:36:26.342Z,47.13
2019-03-25T22:38:56.057Z,47.26
2019-03-25T22:41:25.684Z,47.34
2019-03-25T22:43:55.275Z,47.41
2019-03-25T22:46:24.870Z,47.38
2019-03-25T22:48:54.421Z,47.42
2019-03-25T22:51:23.996Z,47.41
2019-03-25T22:53:53.586Z,47.60
2019-03-25T22:56:24.038Z,47.68
2019-03-25T22:58:53.627Z,47.72
2019-03-25T23:01:23.315Z,47.68
2019-03-25T23:03:52.919Z,47.72
2019-03-25T23:06:22.490Z,47.77
2019-03-25T23:08:52.179Z,47.81
2019-03-25T23:11:21.776Z,47.85
2019-03-25T23:13:54.419Z,47.92
2019-03-25T23:16:24.052Z,47.95
2019-03-25T23:18:53.627Z,47.97
2019-03-25T23:21:23.067Z,48.08
2019-03-25T23:23:52.570Z,48.08
2019-03-25T23:26:22.214Z,48.18
2019-03-25T23:28:51.896Z,48.22
2019-03-25T23:31:21.485Z,48.27
2019-03-25T23:33:52.369Z,48.30
2019-03-25T23:36:22.186Z,48.42
2019-03-25T23:38:51.876Z,48.51
2019-03-25T23:41:21.532Z,48.60
2019-03-25T23:43:51.160Z,48.64
2019-03-25T23:46:20.785Z,48.69
2019-03-25T23:48:50.412Z,48.79
2019-03-25T23:51:20.056Z,48.82
2019-03-25T23:53:49.687Z,48.88
2019-03-25T23:56:19.292Z,49.06
2019-03-25T23:58:48.938Z,49.17
